createdAt,value
2019-03-25T00:04:02.399Z,10.97
2019-03-25T00:09:11.280Z,12.90
2019-03-25T00:14:20.174Z,12.31
2019-03-25T00:19:29.079Z,10.33
2019-03-25T00:24:39.090Z,11.33
2019-03-25T00:29:46.447Z,17.65
2019-03-25T00:34:55.378Z,14.65
2019-03-25T00:40:04.260Z,16.24
2019-03-25T00:45:13.160Z,16.12
2019-03-25T00:50:22.022Z,15.58
2019-03-25T00:55:30.928Z,15.89
2019-03-25T01:00:39.824Z,15.31
2019-03-25T01:05:48.747Z,20.05
2019-03-25T01:10:57.620Z,19.48
2019-03-25T01:16:06.566Z,18.05
2019-03-25T01:21:15.456Z,18.91
2019-03-25T01:26:24.384Z,17.64
2019-03-25T01:31:33.271Z,18.95
2019-03-25T01:36:42.177Z,19.88
2019-03-25T01:41:51.032Z,20.17
2019-03-25T01:46:59.959Z,20.27
2019-03-25T01:52:08.881Z,22.76
2019-03-25T01:57:17.752Z,20.69
2019-03-25T02:02:26.626Z,16.52
2019-03-25T02:07:35.527Z,15.11
2019-03-25T02:12:44.424Z,15.44
2019-03-25T02:17:53.316Z,15.92
2019-03-25T02:23:02.389Z,19.09
2019-03-25T02:28:11.039Z,20.27
2019-03-25T02:33:19.973Z,22.10
2019-03-25T02:38:28.856Z,28.18
2019-03-25T02:43:37.812Z,30.74
2019-03-25T02:48:46.729Z,27.56
2019-03-25T02:53:55.702Z,30.32
2019-03-25T02:59:04.583Z,29.72
2019-03-25T03:04:13.548Z,29.26
2019-03-25T03:09:22.445Z,29.05
2019-03-25T03:14:31.324Z,26.12
2019-03-25T03:19:40.207Z,29.38
2019-03-25T03:24:49.065Z,24.10
2019-03-25T03:29:57.931Z,28.61
2019-03-25T03:35:06.874Z,26.81
2019-03-25T03:40:15.755Z,30.39
2019-03-25T03:45:24.660Z,25.02
2019-03-25T03:50:33.571Z,30.32
2019-03-25T03:55:42.502Z,29.22
2019-03-25T04:00:51.456Z,26.78
2019-03-25T04:06:00.365Z,29.34
2019-03-25T04:11:09.271Z,31.46
2019-03-25T04:16:18.184Z,31.57
2019-03-25T04:21:27.090Z,25.12
2019-03-25T04:26:35.965Z,31.24
2019-03-25T04:31:44.806Z,42.78
2019-03-25T04:36:53.835Z,44.80
2019-03-25T04:42:02.680Z,28.28
2019-03-25T04:47:11.571Z,31.55
2019-03-25T04:52:20.521Z,28.58
2019-03-25T04:57:29.440Z,26.76
2019-03-25T05:02:38.435Z,26.62
2019-03-25T05:07:47.380Z,27.10
2019-03-25T05:12:56.271Z,28.78
2019-03-25T05:18:05.272Z,27.92
2019-03-25T05:23:14.126Z,29.03
2019-03-25T05:28:23.089Z,27.80
2019-03-25T05:33:31.997Z,28.57
2019-03-25T05:38:40.951Z,27.44
2019-03-25T05:43:49.852Z,28.05
2019-03-25T05:48:58.816Z,33.61
2019-03-25T05:54:07.735Z,32.45
2019-03-25T05:59:16.612Z,31.13
2019-03-25T06:04:25.445Z,38.35
2019-03-25T06:09:34.335Z,53.79
2019-03-25T06:14:43.253Z,50.56
2019-03-25T06:19:52.151Z,37.33
2019-03-25T06:25:01.011Z,34.30
2019-03-25T06:30:09.904Z,26.95
2019-03-25T06:35:18.792Z,26.03
2019-03-25T06:40:27.679Z,22.89
2019-03-25T06:45:36.580Z,22.24
2019-03-25T06:50:45.464Z,21.79
2019-03-25T06:55:54.323Z,25.80
2019-03-25T07:01:03.240Z,23.37
2019-03-25T07:06:12.115Z,20.55
2019-03-25T07:11:21.044Z,19.05
2019-03-25T07:16:29.909Z,18.17
2019-03-25T07:21:38.788Z,18.88
2019-03-25T07:26:47.653Z,22.37
2019-03-25T07:31:56.564Z,17.26
2019-03-25T07:37:05.434Z,19.40
2019-03-25T07:42:14.332Z,19.55
2019-03-25T07:47:23.169Z,21.76
2019-03-25T07:52:32.240Z,16.99
2019-03-25T07:57:48.109Z,17.78
2019-03-25T08:02:49.571Z,19.51
2019-03-25T08:07:58.455Z,18.37
2019-03-25T08:13:07.469Z,15.70
2019-03-25T08:18:16.234Z,15.69
2019-03-25T08:23:25.144Z,18.38
2019-03-25T08:28:34.039Z,14.61
2019-03-25T08:33:42.961Z,15.14
2019-03-25T08:38:51.851Z,16.44
2019-03-25T08:44:00.768Z,16.43
2019-03-25T08:49:11.839Z,14.43
2019-03-25T08:54:18.045Z,16.54
2019-03-25T08:59:26.959Z,18.38
2019-03-25T09:04:35.857Z,20.80
2019-03-25T09:09:44.733Z,23.73
2019-03-25T09:14:53.643Z,20.88
2019-03-25T09:20:02.578Z,20.08
2019-03-25T09:25:11.459Z,27.24
2019-03-25T09:30:20.430Z,28.20
2019-03-25T09:35:29.290Z,30.84
2019-03-25T09:40:38.197Z,26.40
2019-03-25T09:45:47.032Z,26.41
2019-03-25T09:50:55.938Z,22.03
2019-03-25T09:56:04.842Z,22.67
2019-03-25T10:01:13.732Z,20.28
2019-03-25T10:06:22.608Z,22.02
2019-03-25T10:11:31.531Z,19.72
2019-03-25T10:16:40.457Z,21.36
2019-03-25T10:21:49.368Z,19.07
2019-03-25T10:26:58.240Z,19.90
2019-03-25T10:32:07.179Z,20.62
2019-03-25T10:37:16.017Z,16.78
2019-03-25T10:42:24.915Z,19.08
2019-03-25T10:47:33.773Z,18.02
2019-03-25T10:52:42.681Z,16.53
2019-03-25T10:57:51.575Z,16.54
2019-03-25T11:03:00.464Z,19.38
2019-03-25T11:08:09.386Z,15.89
2019-03-25T11:13:18.316Z,18.59
2019-03-25T11:18:27.227Z,18.25
2019-03-25T11:23:36.112Z,14.82
2019-03-25T11:28:44.980Z,17.33
2019-03-25T11:33:53.895Z,18.73
2019-03-25T11:39:02.757Z,16.67
2019-03-25T11:44:11.657Z,20.71
2019-03-25T11:49:20.537Z,18.16
2019-03-25T11:54:29.507Z,20.90
2019-03-25T11:59:38.397Z,16.13
2019-03-25T12:04:47.319Z,17.61
2019-03-25T12:09:56.193Z,18.12
2019-03-25T12:15:05.096Z,20.09
2019-03-25T12:20:13.976Z,18.68
2019-03-25T12:25:22.863Z,18.68
2019-03-25T12:30:31.734Z,22.67
2019-03-25T12:35:40.632Z,28.93
2019-03-25T12:40:49.523Z,25.20
2019-03-25T12:45:58.440Z,30.22
2019-03-25T12:51:07.343Z,26.82
2019-03-25T12:56:16.404Z,21.48
2019-03-25T13:01:25.287Z,20.60
2019-03-25T13:06:34.168Z,15.30
2019-03-25T13:11:43.047Z,20.02
2019-03-25T13:16:51.972Z,19.63
2019-03-25T13:22:00.844Z,17.73
2019-03-25T13:27:09.755Z,15.96
2019-03-25T13:32:18.619Z,16.26
2019-03-25T13:37:27.506Z,16.83
2019-03-25T13:42:36.364Z,20.33
2019-03-25T13:47:45.281Z,17.84
2019-03-25T13:52:54.143Z,20.11
2019-03-25T13:58:03.059Z,20.92
2019-03-25T14:03:11.919Z,26.95
2019-03-25T14:08:20.867Z,24.48
2019-03-25T14:13:29.736Z,22.10
2019-03-25T14:18:38.649Z,23.48
2019-03-25T14:23:47.493Z,23.86
2019-03-25T14:28:56.431Z,25.67
2019-03-25T14:34:05.367Z,22.71
2019-03-25T14:39:14.318Z,20.56
2019-03-25T14:44:23.181Z,20.06
2019-03-25T14:49:32.057Z,23.69
2019-03-25T14:54:40.943Z,20.48
2019-03-25T14:59:50.235Z,21.20
2019-03-25T15:04:58.746Z,22.46
2019-03-25T15:10:07.679Z,21.56
2019-03-25T15:15:16.576Z,22.30
2019-03-25T15:20:25.463Z,20.92
2019-03-25T15:25:34.304Z,21.78
2019-03-25T15:30:43.263Z,20.05
2019-03-25T15:35:52.131Z,18.53
2019-03-25T15:41:01.040Z,21.29
2019-03-25T15:46:09.915Z,18.58
2019-03-25T15:51:18.862Z,26.46
2019-03-25T15:56:27.751Z,21.33
2019-03-25T16:01:36.714Z,17.87
2019-03-25T16:06:45.607Z,18.76
2019-03-25T16:11:54.568Z,18.13
2019-03-25T16:17:03.450Z,24.68
2019-03-25T16:22:12.414Z,18.63
2019-03-25T16:27:21.276Z,26.07
2019-03-25T16:32:30.231Z,23.47
2019-03-25T16:37:39.100Z,21.00
2019-03-25T16:42:48.003Z,22.89
2019-03-25T16:47:56.858Z,16.94
2019-03-25T16:53:05.766Z,17.76
2019-03-25T16:58:14.628Z,15.80
2019-03-25T17:03:23.586Z,18.97
2019-03-25T17:08:32.488Z,19.38
2019-03-25T17:13:41.448Z,20.68
2019-03-25T17:18:50.312Z,20.73
2019-03-25T17:23:59.189Z,18.97
2019-03-25T17:29:08.047Z,21.23
2019-03-25T17:34:17.015Z,18.93
2019-03-25T17:39:25.866Z,23.50
2019-03-25T17:44:34.740Z,22.81
2019-03-25T17:49:43.593Z,25.79
2019-03-25T17:54:52.545Z,17.53
2019-03-25T18:00:01.358Z,22.45
2019-03-25T18:05:10.263Z,19.83
2019-03-25T18:10:19.176Z,20.47
2019-03-25T18:15:28.091Z,25.96
2019-03-25T18:20:36.965Z,21.22
2019-03-25T18:25:45.891Z,22.18
2019-03-25T18:30:54.732Z,17.53
2019-03-25T18:36:03.601Z,19.75
2019-03-25T18:41:12.487Z,26.09
2019-03-25T18:46:21.415Z,23.78
2019-03-25T18:51:30.261Z,26.94
2019-03-25T18:56:39.495Z,29.22
2019-03-25T19:01:54.444Z,33.09
2019-03-25T19:06:55.988Z,29.06
2019-03-25T19:12:04.854Z,29.10
2019-03-25T19:17:13.776Z,29.39
2019-03-25T19:22:22.668Z,29.71
2019-03-25T19:27:31.561Z,28.78
2019-03-25T19:32:40.418Z,31.49
2019-03-25T19:37:49.378Z,26.60
2019-03-25T19:42:58.239Z,22.57
2019-03-25T19:48:07.171Z,25.28
2019-03-25T19:53:19.346Z,28.50
2019-03-25T19:58:24.493Z,27.45
2019-03-25T20:03:33.384Z,26.87
2019-03-25T20:08:42.357Z,28.36
2019-03-25T20:13:51.227Z,28.30
2019-03-25T20:19:00.134Z,26.25
2019-03-25T20:24:08.989Z,24.45
2019-03-25T20:29:17.935Z,28.63
2019-03-25T20:34:26.844Z,28.26
2019-03-25T20:39:35.760Z,26.30
2019-03-25T20:44:44.626Z,23.94
2019-03-25T20:49:53.536Z,24.59
2019-03-25T20:55:02.483Z,31.46
2019-03-25T21:00:11.334Z,28.16
2019-03-25T21:05:20.341Z,34.37
2019-03-25T21:10:29.116Z,47.25
2019-03-25T21:15:38.068Z,29.82
2019-03-25T21:20:46.925Z,42.00
2019-03-25T21:25:55.823Z,40.59
2019-03-25T21:31:04.809Z,32.56
2019-03-25T21:36:13.673Z,30.34
2019-03-25T21:41:22.579Z,30.51
2019-03-25T21:46:31.498Z,40.69
2019-03-25T21:51:40.454Z,36.84
2019-03-25T21:56:49.214Z,32.64
2019-03-25T22:01:58.094Z,34.40
2019-03-25T22:07:06.959Z,32.40
2019-03-25T22:12:15.940Z,30.70
2019-03-25T22:17:24.821Z,35.84
2019-03-25T22:22:33.712Z,35.74
2019-03-25T22:27:42.560Z,31.09
2019-03-25T22:32:51.515Z,31.33
2019-03-25T22:38:00.398Z,31.59
2019-03-25T22:43:09.456Z,27.77
2019-03-25T22:48:18.300Z,24.78
2019-03-25T22:53:27.229Z,21.33
2019-03-25T22:58:36.198Z,27.13
2019-03-25T23:03:45.009Z,24.06
2019-03-25T23:08:53.891Z,28.31
2019-03-25T23:14:02.792Z,23.83
2019-03-25T23:19:11.653Z,26.63
2019-03-25T23:24:20.574Z,24.31
2019-03-25T23:29:31.345Z,24.55
2019-03-25T23:34:37.956Z,27.40
2019-03-25T23:39:46.795Z,26.16
2019-03-25T23:44:55.732Z,22.37
2019-03-25T23:50:04.704Z,24.08
2019-03-25T23:55:13.615Z,26.60
